LGPZ/PVK METAR and TAF weather

Enter ICAO airport designator
Station Type Date Time Source
LGPZ METAR 2019/06/27 03:50 UTC NOAA

LGPZ 270350Z 05005KT 9999 FEW025 25/20 Q1015


Station Type Date Time Source
LGPZ Decoded METAR 2019/06/27 03:50 UTC NOAA

Aktion Airport , Greece (LGPZ) 38-37N 020-46E 4M
Jun 26, 2019 - 11:50 PM EDT / 2019.06.27 0350 UTC
Wind: from the NE (050 degrees) at 6 MPH (5 KT):0
Visibility: greater than 7 mile(s):0
Sky conditions: mostly clear
Temperature: 77 F (25 C)
Dew Point: 68 F (20 C)
Relative Humidity: 73%
Pressure (altimeter): 29.97 in. Hg (1015 hPa)
ob: LGPZ 270350Z 05005KT 9999 FEW025 25/20 Q1015
cycle: 4

Station Type Date Time Source
LGPZ TAF 2019/06/26 18:16 UTC NOAA

TAF LGPZ 261700Z 2618/2718 03010KT 9999 FEW018 SCT080
BECMG 2713/2715 30012KT

Example: see airport list